createdAt,value
2022-11-01T00:05:17.401Z,53.14
2022-11-01T00:10:39.056Z,53.18
2022-11-01T00:16:00.796Z,53.07
2022-11-01T00:21:22.615Z,53.09
2022-11-01T00:26:44.391Z,53.23
2022-11-01T00:32:07.074Z,52.77
2022-11-01T00:37:29.795Z,52.95
2022-11-01T00:42:51.451Z,52.87
2022-11-01T00:48:13.677Z,53.03
2022-11-01T00:53:35.327Z,52.99
2022-11-01T00:58:56.978Z,52.79
2022-11-01T01:04:18.733Z,52.61
2022-11-01T01:09:40.362Z,52.97
2022-11-01T01:15:02.491Z,52.90
2022-11-01T01:20:24.513Z,52.94
2022-11-01T01:25:46.208Z,52.95
2022-11-01T01:31:09.046Z,52.94
2022-11-01T01:36:30.828Z,52.53
2022-11-01T01:41:58.087Z,52.58
2022-11-01T01:47:28.969Z,52.74
2022-11-01T01:53:02.927Z,52.54
2022-11-01T01:58:30.725Z,52.59
2022-11-01T02:03:52.778Z,52.56
2022-11-01T02:09:16.374Z,52.46
2022-11-01T02:14:40.693Z,52.18
2022-11-01T02:20:14.208Z,52.30
2022-11-01T02:26:12.752Z,52.59
2022-11-01T02:31:52.747Z,52.64
2022-11-01T02:37:27.909Z,52.17
2022-11-01T02:42:56.263Z,52.46
2022-11-01T02:48:23.739Z,52.47
2022-11-01T02:53:45.462Z,52.01
2022-11-01T02:59:16.759Z,52.44
2022-11-01T03:04:38.808Z,52.50
2022-11-01T03:10:02.006Z,52.18
2022-11-01T03:15:29.392Z,51.88
2022-11-01T03:21:00.083Z,52.10
2022-11-01T03:26:26.913Z,52.24
2022-11-01T03:31:50.594Z,52.12
2022-11-01T03:37:13.466Z,52.18
2022-11-01T03:42:38.052Z,51.98
2022-11-01T03:48:01.559Z,52.04
2022-11-01T03:53:24.302Z,51.94
2022-11-01T03:58:46.389Z,52.06
2022-11-01T04:04:08.025Z,52.05
2022-11-01T04:09:29.645Z,51.57
2022-11-01T04:15:09.537Z,51.82
2022-11-01T04:20:34.834Z,51.68
2022-11-01T04:25:56.607Z,51.86
2022-11-01T04:31:18.327Z,51.82
2022-11-01T04:36:40.128Z,51.55
2022-11-01T04:42:01.839Z,51.72
2022-11-01T04:47:23.476Z,51.26
2022-11-01T04:52:45.131Z,51.29
2022-11-01T04:58:06.932Z,51.22
2022-11-01T05:03:28.591Z,51.19
2022-11-01T05:08:50.182Z,50.88
2022-11-01T05:14:11.932Z,50.78
2022-11-01T05:19:33.727Z,50.86
2022-11-01T05:24:55.457Z,51.04
2022-11-01T05:30:17.276Z,51.22
2022-11-01T05:35:38.949Z,51.15
2022-11-01T05:41:03.602Z,50.87
2022-11-01T05:46:25.399Z,50.80
2022-11-01T05:51:47.076Z,50.58
2022-11-01T05:57:08.912Z,50.22
2022-11-01T06:02:33.605Z,50.01
2022-11-01T06:07:56.020Z,50.46
2022-11-01T06:13:18.001Z,49.77
2022-11-01T06:18:39.669Z,49.89
2022-11-01T06:24:01.307Z,50.00
2022-11-01T06:29:22.988Z,49.40
2022-11-01T06:34:45.092Z,49.35
2022-11-01T06:40:07.598Z,49.37
2022-11-01T06:45:30.328Z,49.46
2022-11-01T06:50:53.955Z,48.78
2022-11-01T06:56:15.669Z,48.38
2022-11-01T07:01:37.441Z,48.13
2022-11-01T07:06:59.690Z,48.19
2022-11-01T07:12:21.366Z,47.94
2022-11-01T07:17:43.989Z,47.96
2022-11-01T07:23:06.202Z,47.74
2022-11-01T07:28:28.804Z,48.14
2022-11-01T07:33:50.483Z,48.04
2022-11-01T07:39:13.024Z,47.66
2022-11-01T07:44:34.679Z,47.73
2022-11-01T07:49:56.342Z,47.91
2022-11-01T07:55:18.190Z,47.79
2022-11-01T08:00:40.983Z,47.17
2022-11-01T08:06:02.641Z,46.94
2022-11-01T08:11:24.326Z,47.34
2022-11-01T08:16:49.792Z,46.46
2022-11-01T08:22:11.389Z,43.75
2022-11-01T08:27:34.589Z,41.33
2022-11-01T08:33:04.978Z,41.89
2022-11-01T08:38:27.479Z,42.90
2022-11-01T08:43:49.380Z,43.16
2022-11-01T08:49:12.435Z,43.16
2022-11-01T08:54:34.506Z,43.38
2022-11-01T08:59:56.126Z,43.69
2022-11-01T09:05:18.132Z,43.73
2022-11-01T09:10:39.935Z,44.32
2022-11-01T09:16:08.254Z,44.37
2022-11-01T09:21:31.731Z,44.66
2022-11-01T09:26:54.035Z,44.07
2022-11-01T09:32:15.855Z,43.86
2022-11-01T09:37:37.592Z,43.44
2022-11-01T09:43:01.940Z,44.30
2022-11-01T09:48:25.689Z,44.00
2022-11-01T09:53:50.080Z,43.67
2022-11-01T09:59:37.835Z,43.24
2022-11-01T10:05:18.843Z,43.27
2022-11-01T10:11:02.794Z,43.62
2022-11-01T10:16:37.672Z,43.61
2022-11-01T10:22:12.561Z,43.65
2022-11-01T10:28:14.167Z,43.75
2022-11-01T10:33:39.933Z,43.77
2022-11-01T10:45:15.419Z,43.71
2022-11-01T10:50:38.473Z,43.08
2022-11-01T10:56:06.085Z,43.10
2022-11-01T11:01:31.952Z,43.05
2022-11-01T11:06:53.769Z,43.09
2022-11-01T11:12:19.134Z,43.55
2022-11-01T11:17:45.122Z,43.83
2022-11-01T11:23:10.842Z,43.69
2022-11-01T11:28:36.028Z,43.67
2022-11-01T11:34:02.920Z,43.67
2022-11-01T11:39:29.837Z,43.25
2022-11-01T11:44:56.932Z,43.35
2022-11-01T11:50:21.629Z,43.48
2022-11-01T11:55:48.231Z,43.45
2022-11-01T12:01:21.294Z,43.03
2022-11-01T12:06:46.739Z,43.24
2022-11-01T12:12:17.366Z,43.17
2022-11-01T12:17:47.026Z,43.51
2022-11-01T12:23:27.312Z,44.12
2022-11-01T12:28:58.691Z,43.51
2022-11-01T12:34:32.211Z,43.69
2022-11-01T12:40:13.141Z,43.79
2022-11-01T12:45:42.203Z,43.59
2022-11-01T12:51:10.359Z,43.41
2022-11-01T12:56:32.715Z,43.80
2022-11-01T13:02:24.529Z,43.32
2022-11-01T13:07:55.956Z,43.03
2022-11-01T13:13:33.646Z,43.38
2022-11-01T13:19:10.741Z,44.12
2022-11-01T13:24:57.297Z,43.95
2022-11-01T13:30:20.043Z,44.19
2022-11-01T13:35:57.657Z,44.28
2022-11-01T13:41:26.758Z,44.39
2022-11-01T13:47:08.404Z,44.80
2022-11-01T13:52:33.958Z,44.46
2022-11-01T13:57:55.582Z,44.76
2022-11-01T14:03:22.022Z,44.87
2022-11-01T14:08:47.282Z,44.64
2022-11-01T14:14:30.701Z,44.24
2022-11-01T14:19:55.884Z,44.48
2022-11-01T14:25:17.583Z,44.75
2022-11-01T14:30:42.890Z,44.53
2022-11-01T14:36:06.992Z,44.50
2022-11-01T14:41:32.778Z,44.67
2022-11-01T14:46:58.177Z,44.48
2022-11-01T14:52:31.317Z,44.14
2022-11-01T14:58:16.181Z,44.56
2022-11-01T15:03:37.899Z,44.25
2022-11-01T15:09:03.021Z,44.67
2022-11-01T15:14:35.809Z,43.82
2022-11-01T15:19:58.776Z,43.86
2022-11-01T15:25:24.022Z,43.86
2022-11-01T15:30:55.166Z,44.33
2022-11-01T15:36:28.380Z,44.42
2022-11-01T15:41:51.252Z,44.58
2022-11-01T15:47:18.621Z,44.33
2022-11-01T15:52:40.426Z,44.76
2022-11-01T15:58:10.800Z,44.48
2022-11-01T16:03:55.754Z,44.30
2022-11-01T16:09:24.002Z,43.84
2022-11-01T16:14:58.901Z,44.27
2022-11-01T16:20:34.205Z,44.22
2022-11-01T16:26:07.506Z,44.01
2022-11-01T16:31:30.892Z,44.09
2022-11-01T16:36:52.950Z,43.92
2022-11-01T16:42:16.112Z,43.86
2022-11-01T16:47:37.916Z,43.74
2022-11-01T16:52:59.592Z,43.66
2022-11-01T16:58:25.000Z,44.04
2022-11-01T17:03:47.484Z,44.23
2022-11-01T17:09:14.408Z,43.98
2022-11-01T17:14:37.718Z,44.11
2022-11-01T17:20:02.054Z,44.17
2022-11-01T17:25:27.958Z,44.22
2022-11-01T17:30:49.592Z,44.27
2022-11-01T17:36:15.610Z,44.12
2022-11-01T17:41:37.692Z,43.87
2022-11-01T17:46:59.836Z,44.12
2022-11-01T17:52:21.587Z,44.25
2022-11-01T17:57:46.571Z,44.70
2022-11-01T18:03:14.918Z,44.68
2022-11-01T18:08:43.733Z,44.92
2022-11-01T18:14:20.739Z,45.35
2022-11-01T18:19:48.317Z,45.17
2022-11-01T18:25:31.850Z,45.62
2022-11-01T18:30:59.032Z,45.84
2022-11-01T18:36:32.946Z,45.66
2022-11-01T18:41:55.115Z,45.19
2022-11-01T18:47:28.976Z,44.88
2022-11-01T18:53:06.085Z,44.72
2022-11-01T18:58:29.865Z,44.54
2022-11-01T19:04:27.807Z,44.37
2022-11-01T19:09:53.652Z,44.38
2022-11-01T19:15:23.292Z,44.68
2022-11-01T19:20:53.119Z,44.77
2022-11-01T19:26:26.162Z,44.67
2022-11-01T19:31:56.129Z,44.51
2022-11-01T19:37:40.936Z,44.52
2022-11-01T19:43:28.650Z,44.78
2022-11-01T19:48:52.319Z,45.32
2022-11-01T19:54:14.270Z,45.23
2022-11-01T19:59:38.087Z,45.53
2022-11-01T20:05:00.430Z,45.41
2022-11-01T20:10:22.123Z,45.55
2022-11-01T20:15:44.443Z,45.84
2022-11-01T20:21:06.548Z,45.69
2022-11-01T20:26:28.235Z,45.51
2022-11-01T20:31:50.104Z,45.57
2022-11-01T20:37:28.732Z,45.32
2022-11-01T20:42:52.386Z,45.14
2022-11-01T20:48:14.185Z,45.65
2022-11-01T20:53:35.847Z,45.13
2022-11-01T20:58:57.559Z,45.44
2022-11-01T21:04:19.495Z,45.09
2022-11-01T21:09:46.852Z,44.93
2022-11-01T21:15:35.859Z,45.09
2022-11-01T21:20:59.187Z,45.02
2022-11-01T21:26:23.498Z,44.88
2022-11-01T21:31:45.344Z,45.39
2022-11-01T21:37:09.062Z,45.46
2022-11-01T21:42:35.788Z,45.18
2022-11-01T21:48:19.759Z,45.10
2022-11-01T21:53:41.412Z,45.64
2022-11-01T21:59:03.152Z,45.71
2022-11-01T22:04:28.762Z,45.66
2022-11-01T22:09:50.774Z,45.49
2022-11-01T22:15:12.657Z,45.57
2022-11-01T22:20:34.314Z,45.52
2022-11-01T22:25:55.960Z,45.55
2022-11-01T22:31:18.524Z,45.75
2022-11-01T22:36:41.995Z,45.34
2022-11-01T22:42:06.000Z,45.62
2022-11-01T22:47:29.553Z,45.54
2022-11-01T22:52:51.288Z,45.37
2022-11-01T22:58:24.816Z,45.54
2022-11-01T23:03:46.677Z,45.18
2022-11-01T23:09:19.175Z,45.48
2022-11-01T23:14:45.701Z,45.09
2022-11-01T23:20:09.533Z,45.57
2022-11-01T23:25:32.776Z,45.25
2022-11-01T23:30:55.289Z,45.11
2022-11-01T23:36:24.963Z,45.04
2022-11-01T23:41:53.196Z,45.23
2022-11-01T23:47:32.397Z,45.02
2022-11-01T23:53:04.475Z,44.95
